Time;durP1;ratioP1;P1;durP2;ratioP2;P2;SDS_P1;SDS_P2;PMS_P1;PMS_P2;Temp;Humidity;BMP_temperature;BMP_pressure;BME280_temperature;BME280_humidity;BME280_pressure;Samples;Min_cycle;Max_cycle;Signal;HPM_P1;HPM_P2
2021/05/11 00:02:08;;;;;;;;;;;;;;;20.99;42.22;99245.44;4416699;32;19938;-53
2021/05/11 00:04:34;;;;;;;;;;;;;;;20.99;42.65;99240.16;4417782;32;19986;-50
2021/05/11 00:06:59;;;;;;;;;;;;;;;20.96;42.79;99240.19;4413090;32;19962;-49
2021/05/11 00:09:25;;;;;;;;;;;;;;;21.00;42.28;99247.19;4416576;32;19966;-50
2021/05/11 00:11:51;;;;;;;;;;;;;;;20.96;42.64;99250.75;4416788;32;20319;-52
2021/05/11 00:14:17;;;;;;;;;;;;;;;20.99;42.09;99240.16;4416286;32;19961;-51
2021/05/11 00:16:43;;;;;;;;;;;;;;;20.98;41.33;99245.44;4417416;32;19985;-51
2021/05/11 00:19:11;;;;;;;;;;;;;;;20.99;42.08;99256.03;4416872;32;19955;-48
2021/05/11 00:21:37;;;;;;;;;;;;;;;20.98;42.57;99248.09;4414325;32;19955;-53
2021/05/11 00:24:03;;;;;;;;;;;;;;;21.01;41.40;99254.25;4402089;32;19965;-51
2021/05/11 00:26:29;;;;;;;;;;;;;;;21.02;42.20;99268.38;4403376;32;20016;-50
2021/05/11 00:28:55;;;;;;;;;;;;;;;21.02;41.68;99249.84;4416092;32;19966;-53
2021/05/11 00:31:21;;;;;;;;;;;;;;;20.98;42.54;99233.09;4416229;32;19978;-48
2021/05/11 00:33:47;;;;;;;;;;;;;;;20.96;41.65;99234.88;4402623;32;20339;-51
2021/05/11 00:36:13;;;;;;;;;;;;;;;20.96;42.67;99248.13;4401036;32;20034;-50
2021/05/11 00:38:39;;;;;;;;;;;;;;;20.96;41.69;99245.47;4415278;32;20009;-50
2021/05/11 00:41:05;;;;;;;;;;;;;;;20.96;42.63;99242.81;4416401;32;20291;-49
2021/05/11 00:43:31;;;;;;;;;;;;;;;20.99;41.40;99240.16;4403887;32;19938;-51
2021/05/11 00:45:59;;;;;;;;;;;;;;;20.97;41.34;99239.28;4401775;32;20306;-51
2021/05/11 00:48:24;;;;;;;;;;;;;;;20.97;42.06;99249.88;4403039;32;19981;-52
2021/05/11 00:50:50;;;;;;;;;;;;;;;20.97;41.73;99246.34;4401385;32;20510;-53
2021/05/11 00:53:16;;;;;;;;;;;;;;;20.99;41.64;99240.16;4419585;32;19946;-47
2021/05/11 00:55:42;;;;;;;;;;;;;;;20.96;41.23;99224.31;4431884;32;19991;-48
2021/05/11 00:58:08;;;;;;;;;;;;;;;21.00;42.18;99223.37;4422379;32;19984;-49
2021/05/11 01:00:34;;;;;;;;;;;;;;;20.99;41.99;99220.72;4420227;32;20017;-48
2021/05/11 01:03:00;;;;;;;;;;;;;;;20.99;41.83;99218.97;4411989;32;19939;-48
2021/05/11 01:05:26;;;;;;;;;;;;;;;20.97;41.56;99215.47;4401324;32;20018;-51
2021/05/11 01:07:51;;;;;;;;;;;;;;;20.98;42.19;99226.91;4407225;32;20421;-52
2021/05/11 01:10:17;;;;;;;;;;;;;;;20.99;41.88;99226.91;4415979;32;20006;-48
2021/05/11 01:12:43;;;;;;;;;;;;;;;20.99;41.39;99226.91;4416334;32;19950;-48
2021/05/11 01:15:09;;;;;;;;;;;;;;;20.95;42.46;99225.19;4416538;32;19954;-51
2021/05/11 01:17:37;;;;;;;;;;;;;;;20.95;41.53;99221.66;4411430;32;19962;-51
2021/05/11 01:20:05;;;;;;;;;;;;;;;20.99;41.27;99223.37;4415690;32;20388;-50
2021/05/11 01:25:09;;;;;;;;;;;;;;;20.92;41.67;99222.53;4401534;32;19958;-50
2021/05/11 01:27:47;;;;;;;;;;;;;;;20.94;41.61;99220.78;4413209;32;19986;-48
2021/05/11 01:44:03;;;;;;;;;;;;;;;20.90;41.53;99188.19;4410254;32;20357;-50
2021/05/11 01:46:53;;;;;;;;;;;;;;;20.92;41.88;99196.09;4410761;32;19955;-48
2021/05/11 01:50:10;;;;;;;;;;;;;;;20.90;42.23;99195.22;4420321;32;20000;-46
2021/05/11 02:24:31;;;;;;;;;;;;;;;20.87;41.89;99172.34;4425815;32;19984;-46
2021/05/11 02:26:57;;;;;;;;;;;;;;;20.80;42.34;99167.94;4426993;32;19958;-47
2021/05/11 02:29:23;;;;;;;;;;;;;;;20.88;42.07;99157.31;4411586;32;20047;-45
2021/05/11 02:31:48;;;;;;;;;;;;;;;20.90;41.57;99145.84;4427746;32;19965;-51
2021/05/11 02:34:14;;;;;;;;;;;;;;;20.90;41.50;99139.66;4425714;32;19958;-50
2021/05/11 02:36:40;;;;;;;;;;;;;;;20.86;41.78;99136.16;4428063;32;20255;-47
2021/05/11 02:39:07;;;;;;;;;;;;;;;20.88;41.49;99138.81;4424071;32;19954;-51
2021/05/11 02:41:33;;;;;;;;;;;;;;;20.87;41.75;99144.97;4426556;32;19962;-48
2021/05/11 02:43:59;;;;;;;;;;;;;;;20.94;41.40;99141.41;4426545;32;19958;-51
2021/05/11 02:46:25;;;;;;;;;;;;;;;20.93;41.67;99139.66;4425210;32;19993;-48
2021/05/11 02:48:51;;;;;;;;;;;;;;;20.91;41.83;99136.12;4426321;32;19952;-47
2021/05/11 02:51:17;;;;;;;;;;;;;;;20.88;41.84;99141.44;4426564;32;19965;-49
2021/05/11 02:53:43;;;;;;;;;;;;;;;20.87;41.60;99129.09;4428746;32;19986;-52
2021/05/11 02:56:09;;;;;;;;;;;;;;;20.90;41.71;99134.38;4425479;32;19938;-51
2021/05/11 02:58:36;;;;;;;;;;;;;;;20.87;41.55;99134.41;4426748;32;19953;-49
2021/05/11 03:01:01;;;;;;;;;;;;;;;20.85;42.10;99136.19;4426737;32;20350;-52
2021/05/11 03:03:27;;;;;;;;;;;;;;;20.83;41.61;99159.16;4424868;32;19988;-49
2021/05/11 03:05:53;;;;;;;;;;;;;;;20.84;42.42;99156.47;4427041;32;19950;-49
2021/05/11 03:08:19;;;;;;;;;;;;;;;20.84;42.10;99139.72;4426425;32;19965;-52
2021/05/11 03:10:45;;;;;;;;;;;;;;;20.87;42.08;99147.63;4424526;32;19950;-49
2021/05/11 03:13:11;;;;;;;;;;;;;;;20.90;41.69;99144.94;4425662;32;19998;-49
2021/05/11 03:15:37;;;;;;;;;;;;;;;20.86;41.95;99141.44;4425316;32;20414;-48
2021/05/11 03:18:03;;;;;;;;;;;;;;;20.82;42.25;99147.66;4426523;32;19993;-50
2021/05/11 03:20:29;;;;;;;;;;;;;;;20.86;41.62;99153.81;4425624;32;20001;-51
2021/05/11 03:22:55;;;;;;;;;;;;;;;20.87;41.61;99152.91;4424771;32;19968;-48
2021/05/11 03:25:21;;;;;;;;;;;;;;;20.87;42.32;99150.28;4425482;32;19955;-50
2021/05/11 03:27:47;;;;;;;;;;;;;;;20.85;41.74;99152.06;4422063;32;19946;-49
2021/05/11 03:30:12;;;;;;;;;;;;;;;20.85;41.67;99144.12;4424135;32;20362;-47
2021/05/11 03:32:39;;;;;;;;;;;;;;;20.84;41.74;99134.44;4433555;32;19948;-48
2021/05/11 03:35:05;;;;;;;;;;;;;;;20.84;41.77;99129.16;4428944;32;19985;-51
2021/05/11 03:37:31;;;;;;;;;;;;;;;20.84;41.48;99124.72;4419100;32;19978;-51
2021/05/11 03:39:56;;;;;;;;;;;;;;;20.83;41.94;99127.41;4421611;32;19969;-49
2021/05/11 03:42:30;;;;;;;;;;;;;;;20.82;42.38;99141.53;4433014;32;20052;-50
2021/05/11 03:45:00;;;;;;;;;;;;;;;20.82;41.70;99136.22;4430974;32;19999;-49
2021/05/11 03:47:28;;;;;;;;;;;;;;;20.83;41.92;99127.41;4418097;32;19958;-48
2021/05/11 03:49:53;;;;;;;;;;;;;;;20.78;42.71;99133.56;4420246;32;19945;-50
2021/05/11 03:52:19;;;;;;;;;;;;;;;20.77;42.82;99137.09;4433450;32;20572;-52
2021/05/11 03:54:45;;;;;;;;;;;;;;;20.76;41.52;99135.34;4432766;32;19996;-51
2021/05/11 03:57:12;;;;;;;;;;;;;;;20.82;42.29;99138.88;4417461;32;20353;-48
2021/05/11 03:59:38;;;;;;;;;;;;;;;20.81;41.92;99150.31;4417896;32;19950;-53
2021/05/11 04:02:04;;;;;;;;;;;;;;;20.86;41.24;99159.12;4425564;32;19962;-51
2021/05/11 04:04:30;;;;;;;;;;;;;;;20.80;42.36;99160.00;4430430;32;19953;-48
2021/05/11 04:06:56;;;;;;;;;;;;;;;20.75;41.66;99159.19;4420902;32;20290;-51
2021/05/11 04:09:30;;;;;;;;;;;;;;;20.77;41.84;99152.97;4417268;32;19938;-49
2021/05/11 04:17:10;;;;;;;;;;;;;;;20.76;42.10;99137.97;4418140;32;19965;-52
2021/05/11 04:19:36;;;;;;;;;;;;;;;20.76;42.10;99124.75;4418112;32;20331;-49
2021/05/11 04:22:02;;;;;;;;;;;;;;;20.76;41.62;99118.59;4430362;32;19945;-47
2021/05/11 04:24:28;;;;;;;;;;;;;;;20.74;42.77;99123.91;4433044;32;20000;-48
2021/05/11 04:26:54;;;;;;;;;;;;;;;20.76;41.92;99116.81;4421891;32;20331;-52
2021/05/11 04:29:20;;;;;;;;;;;;;;;20.76;42.09;99103.59;4416475;32;20053;-51
2021/05/11 04:31:46;;;;;;;;;;;;;;;20.76;42.90;99100.94;4426878;32;20320;-48
2021/05/11 04:34:12;;;;;;;;;;;;;;;20.74;42.09;99101.84;4419032;32;19952;-51
2021/05/11 04:36:38;;;;;;;;;;;;;;;20.77;41.91;99097.41;4425699;32;19983;-52
2021/05/11 04:39:05;;;;;;;;;;;;;;;20.76;42.14;99082.44;4416854;32;19938;-51
2021/05/11 04:41:31;;;;;;;;;;;;;;;20.77;41.74;99070.94;4424798;32;20337;-49
2021/05/11 04:44:00;;;;;;;;;;;;;;;20.76;41.69;99063.91;4432821;32;19968;-49
2021/05/11 04:46:32;;;;;;;;;;;;;;;20.79;42.46;99065.66;4426637;32;19950;-48
2021/05/11 04:48:58;;;;;;;;;;;;;;;20.72;42.88;99069.25;4417730;32;20302;-50
2021/05/11 04:51:24;;;;;;;;;;;;;;;20.75;42.95;99078.03;4422098;32;19962;-50
2021/05/11 04:53:50;;;;;;;;;;;;;;;20.72;42.46;99075.44;4433043;32;19954;-51
2021/05/11 04:56:16;;;;;;;;;;;;;;;20.76;42.36;99077.13;4432574;32;19958;-51
2021/05/11 04:58:42;;;;;;;;;;;;;;;20.76;42.17;99079.78;4427413;32;20012;-49
2021/05/11 05:01:08;;;;;;;;;;;;;;;20.82;41.40;99099.19;4422249;32;19990;-50
2021/05/11 05:03:37;;;;;;;;;;;;;;;20.81;41.91;99107.97;4429639;32;19954;-52
2021/05/11 05:06:03;;;;;;;;;;;;;;;20.83;42.14;99115.03;4425313;32;19973;-46
2021/05/11 05:08:28;;;;;;;;;;;;;;;20.82;41.93;99112.41;4409923;32;20031;-52
2021/05/11 05:10:54;;;;;;;;;;;;;;;20.86;41.22;99112.34;4424232;32;19952;-48
2021/05/11 05:13:20;;;;;;;;;;;;;;;20.88;41.36;99122.94;4424696;32;19993;-49
2021/05/11 05:15:46;;;;;;;;;;;;;;;20.85;41.54;99115.03;4424078;32;20354;-48
2021/05/11 05:18:12;;;;;;;;;;;;;;;20.86;42.11;99124.72;4424811;32;19992;-49
2021/05/11 05:20:38;;;;;;;;;;;;;;;20.84;41.54;99123.84;4423333;32;19949;-51
2021/05/11 05:23:04;;;;;;;;;;;;;;;20.81;42.36;99110.63;4423577;32;19968;-46
2021/05/11 05:25:30;;;;;;;;;;;;;;;20.85;41.26;99109.72;4426868;32;19972;-51
2021/05/11 05:30:22;;;;;;;;;;;;;;;20.78;41.78;99138.84;4426985;32;19946;-51
2021/05/11 05:32:48;;;;;;;;;;;;;;;20.78;41.91;99128.25;4428426;32;19943;-51
2021/05/11 05:35:13;;;;;;;;;;;;;;;20.82;41.46;99130.94;4426295;32;19985;-49
2021/05/11 05:37:39;;;;;;;;;;;;;;;20.84;41.73;99129.16;4428597;32;19942;-52
2021/05/11 05:40:08;;;;;;;;;;;;;;;20.83;41.52;99136.19;4426624;32;20343;-49
2021/05/11 05:42:34;;;;;;;;;;;;;;;20.84;41.64;99129.16;4431087;32;19977;-49
2021/05/11 05:44:59;;;;;;;;;;;;;;;20.86;41.97;99122.06;4434931;32;20339;-50
2021/05/11 05:47:26;;;;;;;;;;;;;;;20.86;41.46;99111.47;4429276;32;19973;-49
2021/05/11 05:49:59;;;;;;;;;;;;;;;20.89;41.72;99114.09;4425445;32;19946;-49
2021/05/11 05:52:34;;;;;;;;;;;;;;;20.90;41.29;99108.78;4413658;32;19934;-49
2021/05/11 05:55:00;;;;;;;;;;;;;;;20.89;41.33;99114.09;4425471;32;20346;-51
2021/05/11 05:57:26;;;;;;;;;;;;;;;20.91;41.35;99125.53;4428453;32;19969;-50
2021/05/11 05:59:52;;;;;;;;;;;;;;;20.92;41.41;99119.34;4414092;32;19938;-51
2021/05/11 06:02:19;;;;;;;;;;;;;;;20.93;41.39;99118.47;4426490;32;20337;-49
2021/05/11 06:04:45;;;;;;;;;;;;;;;20.93;41.53;99123.78;4428220;32;19951;-50
2021/05/11 06:07:13;;;;;;;;;;;;;;;20.95;41.32;99127.28;4428145;32;20000;-50
2021/05/11 06:09:39;;;;;;;;;;;;;;;20.93;41.48;99118.47;4426435;32;19951;-48
2021/05/11 06:12:14;;;;;;;;;;;;;;;20.92;41.54;99109.66;4427188;32;19950;-48
2021/05/11 06:17:17;;;;;;;;;;;;;;;20.93;41.48;99118.47;4425346;32;20023;-49
2021/05/11 06:19:43;;;;;;;;;;;;;;;20.93;41.57;99118.47;4427165;32;19981;-47
2021/05/11 06:22:09;;;;;;;;;;;;;;;20.92;41.58;99108.75;4426870;32;19993;-49
2021/05/11 06:24:35;;;;;;;;;;;;;;;20.93;41.55;99097.31;4428977;32;20000;-48
2021/05/11 06:27:01;;;;;;;;;;;;;;;20.93;41.62;99092.03;4427077;32;20398;-53
2021/05/11 06:29:28;;;;;;;;;;;;;;;20.94;41.63;99088.47;4425750;32;20001;-48
2021/05/11 06:31:54;;;;;;;;;;;;;;;20.95;41.54;99099.91;4426240;32;20018;-52
2021/05/11 06:34:20;;;;;;;;;;;;;;;20.97;41.61;99104.31;4426438;32;19954;-49
2021/05/11 06:36:46;;;;;;;;;;;;;;;20.96;41.62;99105.22;4426493;32;20560;-50
2021/05/11 06:39:14;;;;;;;;;;;;;;;20.96;41.63;99105.22;4423859;32;19955;-53
2021/05/11 06:41:43;;;;;;;;;;;;;;;20.96;41.69;99106.97;4426538;32;19950;-46
2021/05/11 06:44:22;;;;;;;;;;;;;;;20.98;41.55;99100.78;4427196;32;19961;-50
2021/05/11 06:47:21;;;;;;;;;;;;;;;20.99;41.73;99117.50;4427075;32;20291;-46
2021/05/11 06:50:09;;;;;;;;;;;;;;;20.98;41.64;99123.69;4412625;32;19997;-51
2021/05/11 06:54:58;;;;;;;;;;;;;;;20.96;41.68;99136.97;4413149;32;19962;-50
2021/05/11 06:57:24;;;;;;;;;;;;;;;20.96;41.55;99141.38;4409211;32;19973;-51
2021/05/11 06:59:50;;;;;;;;;;;;;;;20.95;41.91;99132.56;4402055;32;19996;-50
2021/05/11 07:02:16;;;;;;;;;;;;;;;20.95;42.29;99127.28;4400680;32;20369;-52
2021/05/11 07:04:43;;;;;;;;;;;;;;;20.96;42.12;99126.38;4414241;32;19950;-48
2021/05/11 07:07:12;;;;;;;;;;;;;;;20.93;42.15;99121.12;4417306;32;19954;-49
2021/05/11 07:14:55;;;;;;;;;;;;;;;20.95;41.92;99116.69;4417215;32;19977;-47
2021/05/11 07:17:21;;;;;;;;;;;;;;;20.95;42.19;99113.16;4410522;32;19978;-52
2021/05/11 07:19:46;;;;;;;;;;;;;;;20.97;42.08;99098.12;4412639;32;19965;-46
2021/05/11 07:22:12;;;;;;;;;;;;;;;20.98;41.95;99084.91;4417095;32;19978;-49
2021/05/11 07:24:39;;;;;;;;;;;;;;;21.02;41.79;99069.88;4410957;32;20331;-48
2021/05/11 07:29:55;;;;;;;;;;;;;;;20.93;42.38;99076.13;4410566;32;19962;-48
2021/05/11 07:32:22;;;;;;;;;;;;;;;21.01;41.94;99061.03;4416861;32;19974;-48
2021/05/11 07:34:51;;;;;;;;;;;;;;;20.98;42.41;99053.12;4416525;32;19991;-46
2021/05/11 07:37:17;;;;;;;;;;;;;;;21.14;41.85;99061.78;4415816;32;19985;-50
2021/05/11 07:39:45;;;;;;;;;;;;;;;21.10;42.03;99057.41;4415262;32;20017;-51
2021/05/11 07:42:11;;;;;;;;;;;;;;;21.13;42.10;99056.50;4415434;32;19998;-48
2021/05/11 07:44:40;;;;;;;;;;;;;;;21.16;42.39;99056.44;4408953;32;19958;-52
2021/05/11 07:50:01;;;;;;;;;;;;;;;21.13;42.09;99030.03;4406998;32;20355;-49
2021/05/11 08:06:29;;;;;;;;;;;;;;;20.98;43.40;99050.50;4404026;32;20509;-50
2021/05/11 08:14:43;;;;;;;;;;;;;;;21.00;43.39;99055.78;4419251;32;19965;-49
2021/05/11 08:17:09;;;;;;;;;;;;;;;20.99;43.42;99065.47;4399962;32;19958;-49
2021/05/11 08:27:46;;;;;;;;;;;;;;;21.01;43.32;99071.63;4425227;32;19988;-52
2021/05/11 08:30:12;;;;;;;;;;;;;;;20.99;43.27;99073.41;4417653;32;20013;-51
2021/05/11 08:32:38;;;;;;;;;;;;;;;21.01;43.24;99089.28;4408130;32;19950;-51
2021/05/11 08:35:06;;;;;;;;;;;;;;;21.01;43.17;99079.56;4417898;32;19979;-50
2021/05/11 08:37:32;;;;;;;;;;;;;;;21.10;42.92;99077.72;4401092;32;19959;-57
2021/05/11 08:39:57;;;;;;;;;;;;;;;21.14;42.92;99079.41;4404055;32;20000;-56
2021/05/11 08:42:23;;;;;;;;;;;;;;;20.85;47.31;99081.47;4416044;32;20304;-55
2021/05/11 08:44:49;;;;;;;;;;;;;;;20.52;47.81;99085.31;4416600;32;19966;-56
2021/05/11 08:47:18;;;;;;;;;;;;;;;20.27;48.86;99080.22;4416062;32;19953;-56
2021/05/11 08:49:44;;;;;;;;;;;;;;;20.36;48.95;99069.56;4416081;32;19968;-51
2021/05/11 08:52:26;;;;;;;;;;;;;;;20.40;49.99;99067.78;4416325;32;19960;-54
2021/05/11 09:06:09;;;;;;;;;;;;;;;20.39;49.79;99027.25;4424190;32;19968;-56
2021/05/11 09:14:22;;;;;;;;;;;;;;;20.50;49.10;98993.63;4416773;32;19954;-50
2021/05/11 09:23:31;;;;;;;;;;;;;;;20.63;48.63;98997.03;4427027;32;19986;-49
2021/05/11 09:24:57;;;;;;;;;;;;;;;20.90;47.49;99028.53;4431925;32;19965;-49
2021/05/11 09:27:27;;;;;;;;;;;;;;;20.95;47.07;99039.06;4416632;32;19969;-48
2021/05/11 10:32:26;;;;;;;;;;;;;;;21.50;43.76;99085.16;4417273;32;19972;-48
2021/05/11 10:43:50;;;;;;;;;;;;;;;21.50;43.63;99103.72;4422192;32;19954;-50
2021/05/11 10:48:08;;;;;;;;;;;;;;;21.52;43.54;99123.09;4422763;32;19953;-51
2021/05/11 10:50:34;;;;;;;;;;;;;;;21.51;43.52;99139.91;4418530;32;19973;-53
2021/05/11 10:53:00;;;;;;;;;;;;;;;21.52;43.46;99154.87;4422909;32;20357;-50
2021/05/11 10:55:27;;;;;;;;;;;;;;;21.54;43.42;99141.63;4425224;32;19957;-47
2021/05/11 10:57:59;;;;;;;;;;;;;;;21.53;43.41;99143.41;4412680;32;19973;-49
2021/05/11 11:03:16;;;;;;;;;;;;;;;21.52;43.36;99138.13;4424329;32;19968;-50
2021/05/11 11:05:42;;;;;;;;;;;;;;;21.52;43.37;99133.69;4424277;32;20013;-51
2021/05/11 11:08:07;;;;;;;;;;;;;;;21.53;43.34;99127.50;4426098;32;19946;-49
2021/05/11 11:10:33;;;;;;;;;;;;;;;21.55;43.24;99124.84;4424999;32;19946;-48
2021/05/11 11:12:59;;;;;;;;;;;;;;;21.55;43.21;99103.66;4425503;32;19958;-53
2021/05/11 11:15:25;;;;;;;;;;;;;;;21.58;43.22;99090.38;4427201;32;20331;-48
2021/05/11 11:17:54;;;;;;;;;;;;;;;21.57;43.23;99100.09;4424986;32;19942;-50
2021/05/11 11:20:22;;;;;;;;;;;;;;;21.62;43.21;99106.19;4425312;32;20021;-51
2021/05/11 11:25:33;;;;;;;;;;;;;;;21.65;43.05;99101.75;4410126;32;19968;-49
2021/05/11 11:27:59;;;;;;;;;;;;;;;21.60;43.18;99107.09;4413020;32;19956;-49
2021/05/11 11:30:25;;;;;;;;;;;;;;;21.59;43.15;99103.59;4411439;32;20015;-51
2021/05/11 11:32:51;;;;;;;;;;;;;;;21.63;43.09;99104.44;4415266;32;19965;-53
2021/05/11 11:35:18;;;;;;;;;;;;;;;21.65;43.08;99112.34;4409081;32;20037;-51
2021/05/11 11:37:46;;;;;;;;;;;;;;;21.63;43.13;99115.03;4422145;32;19980;-54
2021/05/11 11:40:11;;;;;;;;;;;;;;;21.68;43.00;99107.06;4408178;32;19962;-59
2021/05/11 11:42:39;;;;;;;;;;;;;;;21.22;46.17;99098.75;4408831;32;19954;-47
2021/05/11 11:45:05;;;;;;;;;;;;;;;20.85;46.27;99099.16;4408747;32;20346;-51
2021/05/11 11:47:31;;;;;;;;;;;;;;;20.96;46.34;99101.66;4427223;32;19946;-50
2021/05/11 11:49:59;;;;;;;;;;;;;;;21.10;45.92;99109.47;4432717;32;19972;-49
2021/05/11 12:00:10;;;;;;;;;;;;;;;21.43;44.94;99125.88;4416626;32;20441;-49
2021/05/11 12:02:37;;;;;;;;;;;;;;;21.32;45.29;99131.28;4417759;32;19962;-52
2021/05/11 12:05:03;;;;;;;;;;;;;;;21.32;45.29;99137.47;4417688;32;20009;-49
2021/05/11 12:07:29;;;;;;;;;;;;;;;21.40;45.02;99140.03;4417345;32;20346;-52
2021/05/11 12:09:55;;;;;;;;;;;;;;;21.45;44.65;99145.28;4429965;32;19969;-50
2021/05/11 12:12:20;;;;;;;;;;;;;;;21.41;44.67;99144.44;4432499;32;19953;-53
2021/05/11 12:14:46;;;;;;;;;;;;;;;21.50;44.31;99142.59;4420546;32;20331;-49
2021/05/11 12:17:12;;;;;;;;;;;;;;;21.53;44.14;99145.19;4418881;32;19962;-49
2021/05/11 12:19:43;;;;;;;;;;;;;;;21.46;44.35;99141.72;4421950;32;19965;-49
2021/05/11 12:22:09;;;;;;;;;;;;;;;21.56;44.32;99135.44;4417063;32;19950;-50
2021/05/11 12:24:35;;;;;;;;;;;;;;;21.56;44.53;99134.53;4427168;32;19950;-51
2021/05/11 12:27:01;;;;;;;;;;;;;;;21.52;44.41;99148.72;4432386;32;20334;-48
2021/05/11 12:29:27;;;;;;;;;;;;;;;21.54;44.51;99158.38;4422187;32;19950;-50
2021/05/11 12:31:54;;;;;;;;;;;;;;;21.51;44.40;99162.87;4417644;32;19978;-51
2021/05/11 12:34:20;;;;;;;;;;;;;;;21.49;44.21;99162.87;4424326;32;20036;-51
2021/05/11 12:36:51;;;;;;;;;;;;;;;21.45;44.72;99158.53;4432176;32;19957;-53
2021/05/11 12:39:26;;;;;;;;;;;;;;;21.45;44.72;99164.69;4423479;32;19965;-52
2021/05/11 12:41:52;;;;;;;;;;;;;;;21.51;44.61;99176.13;4416689;32;19946;-48
2021/05/11 12:44:18;;;;;;;;;;;;;;;21.58;44.42;99178.66;4422552;32;19972;-48
2021/05/11 12:46:46;;;;;;;;;;;;;;;21.56;44.47;99188.41;4431942;32;19976;-50
2021/05/11 12:49:15;;;;;;;;;;;;;;;21.57;44.30;99187.53;4427001;32;19954;-54
2021/05/11 12:51:42;;;;;;;;;;;;;;;21.55;44.24;99176.06;4417060;32;19980;-50
2021/05/11 12:54:08;;;;;;;;;;;;;;;21.55;44.47;99165.47;4409799;32;19962;-52
2021/05/11 12:57:20;;;;;;;;;;;;;;;21.60;44.26;99168.03;4422925;32;20073;-50
2021/05/11 12:59:23;;;;;;;;;;;;;;;21.50;44.87;99159.34;4417279;32;20030;-54
2021/05/11 13:02:00;;;;;;;;;;;;;;;21.46;45.09;99142.59;4419658;32;20334;-52
2021/05/11 13:15:11;;;;;;;;;;;;;;;21.47;44.56;99109.06;4426314;32;19976;-53
2021/05/11 13:25:09;;;;;;;;;;;;;;;21.43;44.94;99112.66;4429880;32;19968;-51
2021/05/11 13:26:21;;;;;;;;;;;;;;;21.48;44.87;99110.81;4423148;32;19978;-49
2021/05/11 13:28:54;;;;;;;;;;;;;;;21.56;44.56;99116.00;4416073;32;20003;-53
2021/05/11 13:36:31;;;;;;;;;;;;;;;21.62;44.81;99105.34;4401360;32;20615;-53
2021/05/11 13:38:57;;;;;;;;;;;;;;;21.62;44.46;99103.56;4400873;32;19959;-51
2021/05/11 13:41:23;;;;;;;;;;;;;;;21.57;44.56;99099.22;4409764;32;20366;-52
2021/05/11 13:43:48;;;;;;;;;;;;;;;21.59;44.49;99102.72;4405502;32;19954;-50
2021/05/11 13:46:14;;;;;;;;;;;;;;;21.54;44.51;99100.13;4415600;32;19962;-49
2021/05/11 13:48:43;;;;;;;;;;;;;;;21.54;44.56;99094.81;4416174;32;19962;-47
2021/05/11 13:51:14;;;;;;;;;;;;;;;21.50;44.68;99087.81;4419485;32;20276;-50
2021/05/11 13:53:42;;;;;;;;;;;;;;;21.54;44.62;99100.13;4418977;32;20573;-53
2021/05/11 14:01:39;;;;;;;;;;;;;;;21.45;44.97;99100.25;4416055;32;20377;-51
2021/05/11 14:04:06;;;;;;;;;;;;;;;21.58;44.45;99100.97;4412291;32;19946;-50
2021/05/11 14:06:32;;;;;;;;;;;;;;;21.59;44.38;99092.13;4414997;32;20684;-53
2021/05/11 14:08:58;;;;;;;;;;;;;;;21.59;44.28;99090.34;4416039;32;19973;-52
2021/05/11 14:11:23;;;;;;;;;;;;;;;21.54;44.43;99073.63;4418625;32;20290;-50
2021/05/11 14:13:49;;;;;;;;;;;;;;;21.58;44.39;99064.75;4403289;32;19996;-52
2021/05/11 14:16:15;;;;;;;;;;;;;;;21.60;44.37;99078.84;4418521;32;19983;-51
2021/05/11 14:18:41;;;;;;;;;;;;;;;21.68;44.16;99077.94;4418156;32;19954;-50
2021/05/11 14:21:07;;;;;;;;;;;;;;;21.52;44.56;99086.03;4411416;32;20000;-53
2021/05/11 14:23:33;;;;;;;;;;;;;;;21.57;44.41;99088.63;4415978;32;20274;-53
2021/05/11 14:25:59;;;;;;;;;;;;;;;21.54;44.45;99088.66;4420298;32;19969;-52
2021/05/11 14:28:25;;;;;;;;;;;;;;;21.67;44.30;99087.63;4418022;32;20283;-53
2021/05/11 14:30:50;;;;;;;;;;;;;;;21.69;44.07;99100.88;4418615;32;19949;-52
2021/05/11 14:33:17;;;;;;;;;;;;;;;21.70;43.96;99094.69;4419089;32;19946;-51
2021/05/11 14:35:42;;;;;;;;;;;;;;;21.72;44.02;99092.88;4418243;32;20010;-49
2021/05/11 14:38:08;;;;;;;;;;;;;;;21.80;43.81;99088.34;4418107;32;19965;-53
2021/05/11 14:40:34;;;;;;;;;;;;;;;21.67;44.12;99100.00;4408515;32;19955;-53
2021/05/11 14:43:00;;;;;;;;;;;;;;;21.75;43.94;99101.66;4403947;32;19957;-48
2021/05/11 14:45:30;;;;;;;;;;;;;;;21.70;44.01;99090.22;4410623;32;19954;-50
2021/05/11 14:47:56;;;;;;;;;;;;;;;21.68;43.94;99091.19;4418844;32;19954;-51
2021/05/11 14:50:22;;;;;;;;;;;;;;;21.67;44.17;99089.38;4413797;32;19965;-51
2021/05/11 14:52:54;;;;;;;;;;;;;;;21.67;44.00;99102.63;4408545;32;19988;-53
2021/05/11 14:55:23;;;;;;;;;;;;;;;21.59;44.14;99103.59;4409471;32;19983;-53
2021/05/11 14:57:50;;;;;;;;;;;;;;;21.57;44.29;99110.69;4416937;32;20010;-51
2021/05/11 15:00:15;;;;;;;;;;;;;;;21.64;44.34;99108.84;4417812;32;19961;-53
2021/05/11 15:02:41;;;;;;;;;;;;;;;21.66;44.08;99108.81;4417163;32;20009;-55
2021/05/11 15:05:07;;;;;;;;;;;;;;;21.65;44.35;99107.06;4412873;32;20009;-59
2021/05/11 15:07:33;;;;;;;;;;;;;;;21.66;44.68;99108.81;4410048;32;20303;-58
2021/05/11 15:09:59;;;;;;;;;;;;;;;21.26;47.51;99111.06;4411494;32;19966;-60
2021/05/11 15:12:25;;;;;;;;;;;;;;;20.99;47.96;99121.06;4423342;32;20405;-61
2021/05/11 15:14:51;;;;;;;;;;;;;;;20.72;49.36;99116.84;4416783;32;19954;-60
2021/05/11 15:19:49;;;;;;;;;;;;;;;20.53;50.53;99129.38;4417962;32;20224;-60
2021/05/11 15:22:15;;;;;;;;;;;;;;;20.24;51.18;99126.03;4417401;32;20014;-59
2021/05/11 15:24:41;;;;;;;;;;;;;;;20.15;51.49;99124.34;4417945;32;19981;-60
2021/05/11 15:27:07;;;;;;;;;;;;;;;20.22;51.16;99130.47;4417413;32;19970;-60
2021/05/11 15:29:32;;;;;;;;;;;;;;;20.13;51.17;99142.00;4416764;32;20301;-59
2021/05/11 15:31:58;;;;;;;;;;;;;;;20.10;51.48;99142.00;4412786;32;19974;-59
2021/05/11 15:34:24;;;;;;;;;;;;;;;20.18;51.21;99137.53;4402687;32;19989;-59
2021/05/11 15:36:50;;;;;;;;;;;;;;;20.06;52.57;99140.25;4413371;32;20330;-58
2021/05/11 15:39:16;;;;;;;;;;;;;;;19.93;52.44;99142.97;4416813;32;19953;-59
2021/05/11 15:41:42;;;;;;;;;;;;;;;20.02;52.05;99136.78;4415020;32;19959;-58
2021/05/11 15:44:08;;;;;;;;;;;;;;;20.16;51.46;99131.38;4409811;32;19946;-57
2021/05/11 15:46:34;;;;;;;;;;;;;;;20.45;51.07;99124.13;4417037;32;19965;-59
2021/05/11 15:48:59;;;;;;;;;;;;;;;20.65;50.56;99129.25;4417181;32;19954;-61
2021/05/11 15:51:25;;;;;;;;;;;;;;;20.58;50.73;99127.59;4415532;32;19962;-61
2021/05/11 15:53:51;;;;;;;;;;;;;;;20.46;51.00;99133.81;4412986;32;19949;-61
2021/05/11 15:56:17;;;;;;;;;;;;;;;20.35;51.21;99131.28;4409042;32;19982;-61
2021/05/11 15:58:44;;;;;;;;;;;;;;;20.21;51.74;99134.91;4416178;32;20415;-59
2021/05/11 16:01:10;;;;;;;;;;;;;;;20.11;52.09;99138.47;4417375;32;20264;-59
2021/05/11 16:03:36;;;;;;;;;;;;;;;20.20;51.83;99137.53;4417893;32;19987;-59
2021/05/11 16:06:01;;;;;;;;;;;;;;;20.27;52.06;99143.66;4416703;32;19988;-59
2021/05/11 16:08:28;;;;;;;;;;;;;;;20.41;51.60;99146.22;4416272;32;20012;-59
2021/05/11 16:10:55;;;;;;;;;;;;;;;20.40;51.57;99155.91;4416254;32;20367;-59
2021/05/11 16:13:22;;;;;;;;;;;;;;;20.49;51.36;99155.84;4415857;32;19950;-59
2021/05/11 16:15:48;;;;;;;;;;;;;;;20.42;51.63;99146.19;4416724;32;20005;-59
2021/05/11 16:18:14;;;;;;;;;;;;;;;20.16;52.29;99152.53;4416173;32;19992;-59
2021/05/11 16:20:40;;;;;;;;;;;;;;;20.34;51.82;99148.03;4415557;32;20375;-59
2021/05/11 16:23:09;;;;;;;;;;;;;;;19.94;53.69;99157.97;4416335;32;19946;-59
2021/05/11 16:25:35;;;;;;;;;;;;;;;20.12;53.11;99145.53;4416718;32;20474;-60
2021/05/11 16:28:04;;;;;;;;;;;;;;;20.10;53.38;99147.31;4415618;32;19991;-57
2021/05/11 16:30:30;;;;;;;;;;;;;;;20.02;53.60;99149.09;4415174;32;19991;-60
2021/05/11 16:32:56;;;;;;;;;;;;;;;19.91;53.50;99146.50;4416213;32;20525;-58
2021/05/11 16:35:22;;;;;;;;;;;;;;;19.91;53.30;99144.72;4416649;32;19950;-58
2021/05/11 16:37:47;;;;;;;;;;;;;;;20.09;53.48;99145.56;4413373;32;19958;-57
2021/05/11 16:40:13;;;;;;;;;;;;;;;19.98;53.74;99150.00;4400601;32;20326;-59
2021/05/11 16:42:39;;;;;;;;;;;;;;;20.14;53.65;99150.81;4403806;32;19998;-57
2021/05/11 16:45:07;;;;;;;;;;;;;;;19.78;54.47;99156.22;4416819;32;19946;-59
2021/05/11 16:47:33;;;;;;;;;;;;;;;19.86;53.54;99149.16;4416510;32;19981;-58